createdAt,value
2023-03-28T00:04:41.453Z,98541.37
2023-03-28T00:09:43.446Z,98543.71
2023-03-28T00:14:46.397Z,98545.24
2023-03-28T00:19:49.993Z,98542.60
2023-03-28T00:24:53.896Z,98544.52
2023-03-28T00:29:55.707Z,98538.61
2023-03-28T00:34:57.895Z,98545.09
2023-03-28T00:39:59.636Z,98543.15
2023-03-28T00:45:01.911Z,98545.09
2023-03-28T00:50:07.155Z,98544.02
2023-03-28T00:55:15.662Z,98541.56
2023-03-28T01:00:19.087Z,98544.62
2023-03-28T01:05:31.934Z,98538.34
2023-03-28T01:10:34.563Z,98543.30
2023-03-28T01:15:38.056Z,98541.52
2023-03-28T01:20:55.217Z,98540.20
2023-03-28T01:26:17.368Z,98543.17
2023-03-28T01:31:38.168Z,98543.02
2023-03-28T01:37:41.075Z,98540.36
2023-03-28T01:43:02.988Z,98533.08
2023-03-28T01:48:22.025Z,98529.91
2023-03-28T01:53:43.126Z,98524.02
2023-03-28T01:58:51.859Z,98534.88
2023-03-28T02:04:03.091Z,98524.23
2023-03-28T02:09:16.609Z,98525.08
2023-03-28T02:14:43.963Z,98518.31
2023-03-28T02:20:11.748Z,98518.65
2023-03-28T02:25:32.482Z,98519.58
2023-03-28T02:30:59.082Z,98515.92
2023-03-28T02:36:07.255Z,98512.88
2023-03-28T02:41:32.005Z,98513.09
2023-03-28T02:46:46.555Z,98509.09
2023-03-28T02:51:58.639Z,98507.58
2023-03-28T02:57:13.316Z,98507.07
2023-03-28T03:02:21.565Z,98506.98
2023-03-28T03:07:25.004Z,98501.89
2023-03-28T03:12:26.963Z,98509.52
2023-03-28T03:17:31.685Z,98503.21
2023-03-28T03:22:34.694Z,98505.17
2023-03-28T03:27:37.547Z,98501.92
2023-03-28T03:32:41.350Z,98497.98
2023-03-28T03:37:43.590Z,98492.08
2023-03-28T03:42:45.405Z,98489.55
2023-03-28T03:47:47.200Z,98483.43
2023-03-28T03:52:49.009Z,98481.02
2023-03-28T03:57:51.182Z,98481.67
2023-03-28T04:06:20.630Z,98490.73
2023-03-28T04:11:23.066Z,98495.70
2023-03-28T04:16:26.276Z,98497.81
2023-03-28T04:21:42.849Z,98498.11
2023-03-28T04:26:45.929Z,98503.70
2023-03-28T04:31:51.081Z,98502.83
2023-03-28T04:36:52.925Z,98499.38
2023-03-28T04:41:55.756Z,98502.64
2023-03-28T04:46:58.409Z,98497.42
2023-03-28T04:52:01.217Z,98491.52
2023-03-28T04:57:04.803Z,98488.13
2023-03-28T05:02:18.033Z,98501.46
2023-03-28T05:07:27.231Z,98505.59
2023-03-28T05:12:29.791Z,98509.83
2023-03-28T05:17:37.242Z,98500.80
2023-03-28T05:22:51.044Z,98508.34
2023-03-28T05:27:53.072Z,98504.73
2023-03-28T05:32:54.887Z,98507.99
2023-03-28T05:37:56.815Z,98508.23
2023-03-28T05:42:58.802Z,98512.16
2023-03-28T05:48:00.878Z,98520.41
2023-03-28T05:53:04.236Z,98522.10
2023-03-28T05:58:06.423Z,98521.09
2023-03-28T06:03:16.533Z,98530.63
2023-03-28T06:08:19.711Z,98535.91
2023-03-28T06:13:21.758Z,98542.94
2023-03-28T06:18:23.798Z,98541.35
2023-03-28T06:23:25.866Z,98539.96
2023-03-28T06:28:28.101Z,98561.78
2023-03-28T06:33:41.597Z,98599.30
2023-03-28T06:38:45.855Z,98625.84
2023-03-28T06:43:47.789Z,98621.02
2023-03-28T06:49:25.431Z,98621.88
2023-03-28T06:54:49.984Z,98618.48
2023-03-28T06:59:52.697Z,98614.91
2023-03-28T07:04:59.450Z,98623.30
2023-03-28T07:10:01.390Z,98636.91
2023-03-28T07:15:06.046Z,98646.54
2023-03-28T07:20:08.720Z,98667.23
2023-03-28T07:25:11.108Z,98664.44
2023-03-28T07:30:14.326Z,98677.02
2023-03-28T07:35:16.364Z,98675.35
2023-03-28T07:40:22.173Z,98682.98
2023-03-28T07:45:23.959Z,98689.64
2023-03-28T07:50:27.141Z,98691.68
2023-03-28T07:55:30.060Z,98713.23
2023-03-28T08:00:34.562Z,98722.55
2023-03-28T08:06:20.022Z,98739.10
2023-03-28T08:11:31.227Z,98750.71
2023-03-28T08:16:33.698Z,98762.69
2023-03-28T08:21:36.590Z,98773.21
2023-03-28T08:26:39.234Z,98786.83
2023-03-28T08:31:42.594Z,98764.09
2023-03-28T08:36:47.495Z,98776.03
2023-03-28T08:42:20.263Z,98774.84
2023-03-28T08:47:29.197Z,98781.48
2023-03-28T08:52:31.856Z,98802.86
2023-03-28T08:57:36.185Z,98812.58
2023-03-28T09:02:38.116Z,98821.05
2023-03-28T09:08:00.351Z,98818.75
2023-03-28T09:13:24.510Z,98821.83
2023-03-28T09:19:00.556Z,98835.41
2023-03-28T09:24:21.062Z,98848.05
2023-03-28T09:29:45.755Z,98840.98
2023-03-28T09:34:51.195Z,98845.70
2023-03-28T09:39:56.499Z,98863.11
2023-03-28T09:45:30.483Z,98865.55
2023-03-28T09:50:32.386Z,98865.23
2023-03-28T09:55:35.678Z,98866.80
2023-03-28T10:00:44.124Z,98879.76
2023-03-28T10:06:27.755Z,98889.05
2023-03-28T10:11:29.613Z,98896.33
2023-03-28T10:16:32.288Z,98892.23
2023-03-28T10:21:34.144Z,98889.42
2023-03-28T10:26:43.529Z,98900.41
2023-03-28T10:31:50.156Z,98898.52
2023-03-28T10:37:02.644Z,98899.02
2023-03-28T10:42:18.983Z,98897.10
2023-03-28T10:47:30.350Z,98904.17
2023-03-28T10:52:49.605Z,98896.22
2023-03-28T10:58:03.361Z,98881.75
2023-03-28T11:03:20.397Z,98903.23
2023-03-28T11:08:46.254Z,98939.96
2023-03-28T11:14:04.090Z,98968.73
2023-03-28T11:19:38.476Z,98963.55
2023-03-28T11:24:57.172Z,98947.13
2023-03-28T11:30:24.234Z,98942.85
2023-03-28T11:35:46.438Z,98945.79
2023-03-28T11:41:13.312Z,98932.81
2023-03-28T11:46:35.215Z,98943.36
2023-03-28T11:51:45.822Z,98969.20
2023-03-28T11:57:04.569Z,98996.42
2023-03-28T12:02:55.248Z,99008.81
2023-03-28T12:08:05.577Z,99007.84
2023-03-28T12:13:27.072Z,99014.87
2023-03-28T12:18:38.927Z,99015.23
2023-03-28T12:24:04.223Z,99004.67
2023-03-28T12:29:21.755Z,99006.70
2023-03-28T12:34:38.425Z,99014.00
2023-03-28T12:40:39.254Z,99007.95
2023-03-28T12:45:47.569Z,99020.46
2023-03-28T12:50:56.403Z,99016.96
2023-03-28T12:55:58.754Z,99032.51
2023-03-28T13:01:07.399Z,99035.48
2023-03-28T13:06:30.683Z,99021.87
2023-03-28T13:11:54.729Z,99009.27
2023-03-28T13:16:59.171Z,99013.41
2023-03-28T13:22:01.047Z,99008.24
2023-03-28T13:27:30.418Z,98999.56
2023-03-28T13:32:42.024Z,99008.24
2023-03-28T13:37:43.661Z,99005.30
2023-03-28T13:42:57.000Z,99024.77
2023-03-28T13:48:12.065Z,99077.62
2023-03-28T13:53:15.417Z,99083.52
2023-03-28T13:58:19.008Z,99068.29
2023-03-28T14:03:21.288Z,99067.60
2023-03-28T14:08:25.622Z,99061.52
2023-03-28T14:13:30.605Z,99052.01
2023-03-28T14:18:48.028Z,99048.89
2023-03-28T14:23:59.445Z,99057.35
2023-03-28T14:29:07.638Z,99073.85
2023-03-28T14:34:15.141Z,99104.90
2023-03-28T14:39:18.368Z,99080.06
2023-03-28T14:44:21.058Z,99077.08
2023-03-28T14:49:25.207Z,99097.52
2023-03-28T14:54:38.843Z,99128.58
2023-03-28T14:59:45.054Z,99116.01
2023-03-28T15:04:47.464Z,99119.63
2023-03-28T15:10:07.557Z,99108.96
2023-03-28T15:15:29.196Z,99118.32
2023-03-28T15:20:34.839Z,99117.77
2023-03-28T15:25:36.926Z,99112.48
2023-03-28T15:30:44.041Z,99108.05
2023-03-28T15:35:47.032Z,99111.06
2023-03-28T15:40:50.955Z,99105.13
2023-03-28T15:46:14.060Z,99106.35
2023-03-28T15:51:18.882Z,99104.45
2023-03-28T15:56:37.126Z,99106.65
2023-03-28T16:01:38.950Z,99120.45
2023-03-28T16:06:44.697Z,99134.34
2023-03-28T16:11:49.615Z,99150.35
2023-03-28T16:17:25.150Z,99147.60
2023-03-28T16:22:35.846Z,99153.89
2023-03-28T16:27:38.632Z,99172.92
2023-03-28T16:32:40.429Z,99176.88
2023-03-28T16:37:42.204Z,99184.21
2023-03-28T16:42:44.375Z,99190.48
2023-03-28T16:47:47.384Z,99201.63
2023-03-28T16:52:56.169Z,99214.86
2023-03-28T16:57:57.908Z,99224.34
2023-03-28T17:03:07.978Z,99226.29
2023-03-28T17:08:09.883Z,99235.53
2023-03-28T17:13:11.649Z,99241.30
2023-03-28T17:18:13.465Z,99250.17
2023-03-28T17:23:15.253Z,99257.81
2023-03-28T17:28:17.070Z,99269.19
2023-03-28T17:33:19.567Z,99276.54
2023-03-28T17:38:21.738Z,99279.71
2023-03-28T17:43:23.486Z,99292.58
2023-03-28T17:48:25.205Z,99304.55
2023-03-28T17:53:26.970Z,99309.52
2023-03-28T17:58:28.811Z,99320.79
2023-03-28T18:03:31.016Z,99330.55
2023-03-28T18:08:59.070Z,99332.63
2023-03-28T18:14:01.137Z,99333.92
2023-03-28T18:19:03.496Z,99335.95
2023-03-28T18:24:05.627Z,99344.88
2023-03-28T18:29:07.905Z,99353.44
2023-03-28T18:34:09.613Z,99357.48
2023-03-28T18:39:12.549Z,99361.77
2023-03-28T18:44:14.956Z,99367.36
2023-03-28T18:49:16.748Z,99378.23
2023-03-28T18:54:18.699Z,99384.87
2023-03-28T18:59:20.959Z,99394.95
2023-03-28T19:04:24.085Z,99399.48
2023-03-28T19:09:26.377Z,99401.33
2023-03-28T19:14:28.440Z,99401.66
2023-03-28T19:19:30.467Z,99405.53
2023-03-28T19:24:33.803Z,99408.29
2023-03-28T19:29:35.791Z,99409.36
2023-03-28T19:34:37.501Z,99412.27
2023-03-28T19:39:39.168Z,99414.27
2023-03-28T19:44:40.815Z,99417.05
2023-03-28T19:49:42.935Z,99418.37
2023-03-28T19:54:44.624Z,99419.05
2023-03-28T19:59:47.706Z,99418.36
2023-03-28T20:04:49.507Z,99416.13
2023-03-28T20:09:51.224Z,99424.27
2023-03-28T20:14:54.436Z,99421.69
2023-03-28T20:19:58.354Z,99423.27
2023-03-28T20:25:00.561Z,99426.65
2023-03-28T20:30:03.598Z,99425.11
2023-03-28T20:35:06.777Z,99422.95
2023-03-28T20:40:11.967Z,99424.08
2023-03-28T20:45:22.159Z,99424.98
2023-03-28T20:50:26.515Z,99426.27
2023-03-28T20:55:32.118Z,99428.31
2023-03-28T21:00:35.831Z,99435.06
2023-03-28T21:05:44.926Z,99436.52
2023-03-28T21:10:53.514Z,99442.17
2023-03-28T21:15:59.159Z,99441.82
2023-03-28T21:21:01.350Z,99442.78
2023-03-28T21:26:08.748Z,99446.02
2023-03-28T21:31:17.003Z,99442.89
2023-03-28T21:36:19.718Z,99444.19
2023-03-28T21:41:23.930Z,99443.99
2023-03-28T21:46:27.285Z,99448.04
2023-03-28T21:51:31.752Z,99450.59
2023-03-28T21:56:42.307Z,99450.86
2023-03-28T22:01:44.085Z,99447.81
2023-03-28T22:06:45.892Z,99447.83
2023-03-28T22:11:48.429Z,99448.67
2023-03-28T22:16:50.601Z,99450.36
2023-03-28T22:21:52.451Z,99455.21
2023-03-28T22:26:54.522Z,99467.55
2023-03-28T22:31:56.932Z,99470.94
2023-03-28T22:36:58.678Z,99475.81
2023-03-28T22:42:00.705Z,99480.77
2023-03-28T22:47:03.198Z,99478.00
2023-03-28T22:52:06.273Z,99478.15
2023-03-28T22:57:08.397Z,99476.65
2023-03-28T23:02:11.444Z,99477.21
2023-03-28T23:07:16.423Z,99479.24
2023-03-28T23:12:38.647Z,99478.06
2023-03-28T23:17:42.938Z,99479.97
2023-03-28T23:22:47.449Z,99482.40
2023-03-28T23:27:49.200Z,99484.15
2023-03-28T23:32:52.436Z,99488.27
2023-03-28T23:37:54.233Z,99484.16
2023-03-28T23:43:03.698Z,99484.56
2023-03-28T23:48:07.314Z,99486.82
2023-03-28T23:53:16.275Z,99486.09
2023-03-28T23:58:17.953Z,99486.52
